Time;durP1;ratioP1;P1;durP2;ratioP2;P2;SDS_P1;SDS_P2;PMS_P1;PMS_P2;Temp;Humidity;BMP_temperature;BMP_pressure;BME280_temperature;BME280_humidity;BME280_pressure;Samples;Min_cycle;Max_cycle;Signal;HPM_P1;HPM_P2
2021/04/11 00:01:58;;;;;;;6.37;5.77;;;12.40;61.50;;;;;;5029734;28;20288;-89
2021/04/11 00:04:24;;;;;;;6.70;5.23;;;12.30;61.10;;;;;;5048134;28;20187;-89
2021/04/11 00:06:50;;;;;;;5.87;5.33;;;12.30;60.90;;;;;;5048056;28;20177;-89
2021/04/11 00:09:16;;;;;;;6.57;5.90;;;12.30;61.70;;;;;;5046345;28;20207;-89
2021/04/11 00:11:42;;;;;;;5.93;5.43;;;12.30;61.30;;;;;;5047470;28;20316;-88
2021/04/11 00:14:08;;;;;;;5.40;5.00;;;12.20;62.40;;;;;;5047662;28;20279;-90
2021/04/11 00:16:33;;;;;;;6.10;5.20;;;12.10;63.40;;;;;;5030104;28;20188;-89
2021/04/11 00:18:59;;;;;;;5.27;4.60;;;12.10;62.90;;;;;;5047381;28;20183;-88
2021/04/11 00:21:25;;;;;;;5.67;4.87;;;11.90;62.90;;;;;;5047252;28;20290;-89
2021/04/11 00:23:50;;;;;;;6.10;5.60;;;12.00;62.50;;;;;;5047631;28;20180;-89
2021/04/11 00:26:16;;;;;;;5.17;4.77;;;11.90;62.20;;;;;;5046339;28;20586;-89
2021/04/11 00:28:42;;;;;;;5.63;5.13;;;11.90;62.70;;;;;;5047627;28;20181;-89
2021/04/11 00:31:08;;;;;;;6.90;6.20;;;12.00;62.00;;;;;;5047715;28;20233;-90
2021/04/11 00:33:39;;;;;;;5.23;4.73;;;12.00;61.80;;;;;;5051106;28;20198;-89
2021/04/11 00:36:12;;;;;;;5.63;5.10;;;12.00;63.00;;;;;;5067508;28;20192;-89
2021/04/11 00:38:38;;;;;;;5.87;5.37;;;11.90;63.50;;;;;;5049470;28;20203;-89
2021/04/11 00:41:14;;;;;;;6.33;5.80;;;11.80;63.40;;;;;;5049553;28;20250;-88
2021/04/11 00:43:40;;;;;;;7.20;5.37;;;11.80;63.10;;;;;;5046040;28;20183;-89
2021/04/11 00:46:06;;;;;;;6.13;5.53;;;11.80;62.90;;;;;;5029314;28;20184;-89
2021/04/11 00:48:34;;;;;;;7.17;5.40;;;11.70;63.60;;;;;;5046500;28;20251;-88
2021/04/11 00:51:04;;;;;;;6.17;5.57;;;11.60;63.70;;;;;;5045685;28;20297;-89
2021/04/11 00:53:30;;;;;;;5.60;5.10;;;11.50;63.50;;;;;;5060807;28;20649;-88
2021/04/11 00:55:56;;;;;;;7.07;6.20;;;11.60;63.50;;;;;;5067106;28;20250;-88
2021/04/11 00:58:25;;;;;;;7.13;5.87;;;11.50;64.40;;;;;;5066981;28;20182;-88
2021/04/11 01:00:50;;;;;;;6.20;5.57;;;11.40;64.60;;;;;;5066734;28;20217;-88
2021/04/11 01:03:21;;;;;;;6.87;6.17;;;11.40;64.80;;;;;;5049360;28;20278;-88
2021/04/11 01:05:47;;;;;;;7.60;6.63;;;11.40;64.40;;;;;;5049109;28;20212;-89
2021/04/11 01:08:17;;;;;;;6.67;6.07;;;11.40;65.20;;;;;;5049235;28;20210;-88
2021/04/11 01:10:49;;;;;;;6.17;5.57;;;11.30;65.50;;;;;;5066400;28;20229;-88
2021/04/11 01:13:16;;;;;;;6.00;5.27;;;11.30;64.90;;;;;;5061025;28;20168;-90
2021/04/11 01:15:43;;;;;;;5.97;5.37;;;11.30;65.20;;;;;;5077993;28;20194;-89
2021/04/11 01:18:09;;;;;;;6.07;5.40;;;11.30;65.10;;;;;;5068248;28;20179;-88
2021/04/11 01:20:36;;;;;;;5.73;5.13;;;11.30;65.50;;;;;;5067247;28;20230;-87
2021/04/11 01:23:14;;;;;;;6.27;5.07;;;11.10;65.80;;;;;;5066464;28;20260;-88
2021/04/11 01:25:42;;;;;;;6.00;5.50;;;11.10;65.70;;;;;;5050221;28;20175;-88
2021/04/11 01:28:38;;;;;;;6.03;5.40;;;11.10;65.90;;;;;;5049671;28;20190;-89
2021/04/11 01:31:07;;;;;;;6.67;5.13;;;11.00;65.90;;;;;;5049689;28;20214;-88
2021/04/11 01:33:37;;;;;;;5.63;5.13;;;11.00;66.00;;;;;;5067359;28;20197;-88
2021/04/11 01:36:05;;;;;;;8.43;5.73;;;11.10;65.50;;;;;;5066889;28;20215;-88
2021/04/11 01:38:34;;;;;;;6.97;5.77;;;11.10;65.90;;;;;;5049426;28;20190;-88
2021/04/11 01:41:12;;;;;;;6.33;5.20;;;11.10;66.10;;;;;;5066694;28;20214;-88
2021/04/11 01:43:39;;;;;;;6.10;5.50;;;11.00;66.40;;;;;;5067108;28;20181;-89
2021/04/11 01:46:07;;;;;;;5.70;5.13;;;11.00;66.80;;;;;;5048886;28;20545;-88
2021/04/11 01:48:33;;;;;;;5.53;5.03;;;11.00;66.60;;;;;;5044994;28;20731;-88
2021/04/11 01:51:01;;;;;;;6.23;5.63;;;11.00;66.20;;;;;;5045863;28;20222;-89
2021/04/11 01:53:27;;;;;;;5.90;5.30;;;11.00;66.30;;;;;;5063300;28;20196;-88
2021/04/11 01:55:53;;;;;;;6.97;5.80;;;11.00;66.20;;;;;;5063835;28;20192;-89
2021/04/11 01:58:19;;;;;;;6.27;5.67;;;11.00;66.20;;;;;;5063310;28;20182;-88
2021/04/11 02:00:59;;;;;;;6.30;5.70;;;11.10;66.50;;;;;;5028475;28;20244;-89
2021/04/11 02:03:24;;;;;;;7.57;5.90;;;11.00;67.10;;;;;;5045678;28;20178;-89
2021/04/11 02:05:51;;;;;;;5.93;5.43;;;11.10;66.00;;;;;;5063085;28;20180;-89
2021/04/11 02:08:22;;;;;;;5.73;5.20;;;11.10;66.40;;;;;;5063389;28;20183;-89
2021/04/11 02:10:51;;;;;;;6.20;5.60;;;11.00;66.00;;;;;;5045871;28;20206;-88
2021/04/11 02:13:21;;;;;;;6.77;5.50;;;11.00;66.20;;;;;;5063346;28;20190;-89
2021/04/11 02:15:50;;;;;;;6.13;5.63;;;11.00;66.20;;;;;;5064304;28;20197;-89
2021/04/11 02:18:17;;;;;;;6.53;5.53;;;10.90;66.80;;;;;;5076642;28;20190;-88
2021/04/11 02:20:43;;;;;;;6.13;5.50;;;10.90;66.70;;;;;;5076958;28;20222;-89
2021/04/11 02:23:11;;;;;;;6.07;5.47;;;10.90;66.90;;;;;;5073646;28;20181;-88
2021/04/11 02:25:44;;;;;;;7.70;5.47;;;10.80;66.70;;;;;;5063341;28;20272;-89
2021/04/11 02:28:12;;;;;;;5.77;5.07;;;10.90;66.80;;;;;;5063439;28;20605;-89
2021/04/11 02:30:44;;;;;;;5.67;5.07;;;10.90;67.00;;;;;;5063117;28;20186;-89
2021/04/11 02:33:10;;;;;;;5.83;5.23;;;10.90;66.60;;;;;;5045828;28;20206;-89
2021/04/11 02:35:36;;;;;;;6.27;5.00;;;10.90;66.70;;;;;;5062952;28;20186;-88
2021/04/11 02:38:03;;;;;;;5.13;4.67;;;10.90;66.60;;;;;;5046454;28;20213;-89
2021/04/11 02:40:35;;;;;;;6.17;5.10;;;11.00;66.40;;;;;;5063161;28;20186;-88
2021/04/11 02:43:03;;;;;;;5.97;5.40;;;11.10;67.10;;;;;;5063377;28;20182;-89
2021/04/11 02:45:33;;;;;;;5.00;4.53;;;11.10;66.90;;;;;;5063362;28;20190;-89
2021/04/11 02:47:59;;;;;;;6.13;5.63;;;11.00;66.50;;;;;;5062358;28;20171;-88
2021/04/11 02:50:29;;;;;;;5.97;5.47;;;11.20;66.50;;;;;;5063147;28;20246;-89
2021/04/11 02:53:06;;;;;;;5.87;5.37;;;11.10;66.50;;;;;;5063086;28;20224;-89
2021/04/11 02:55:39;;;;;;;6.73;5.77;;;11.20;68.50;;;;;;5063100;28;20162;-89
2021/04/11 02:58:05;;;;;;;8.03;5.43;;;11.00;68.70;;;;;;5063147;28;20167;-89
2021/04/11 03:00:34;;;;;;;9.17;5.63;;;11.00;69.10;;;;;;5028698;28;20791;-89
2021/04/11 03:03:01;;;;;;;5.17;4.77;;;11.00;69.20;;;;;;5062748;28;20165;-88
2021/04/11 03:05:28;;;;;;;5.93;5.43;;;10.90;69.00;;;;;;5063183;28;20179;-89
2021/04/11 03:08:01;;;;;;;5.47;4.97;;;11.00;68.90;;;;;;5044437;28;20182;-88
2021/04/11 03:10:51;;;;;;;5.47;5.07;;;11.00;68.70;;;;;;5063263;28;20208;-88
2021/04/11 03:13:18;;;;;;;6.73;5.07;;;11.00;68.70;;;;;;5066654;28;20249;-89
2021/04/11 03:15:46;;;;;;;5.37;4.90;;;11.00;68.90;;;;;;5066667;28;20185;-89
2021/04/11 03:18:13;;;;;;;6.17;5.57;;;11.00;69.00;;;;;;5048504;28;20278;-88
2021/04/11 03:20:41;;;;;;;5.83;5.33;;;11.00;69.80;;;;;;5067123;28;20235;-89
2021/04/11 03:23:11;;;;;;;6.00;5.50;;;11.10;69.60;;;;;;5067024;28;20507;-89
2021/04/11 03:25:39;;;;;;;5.77;5.27;;;11.10;69.00;;;;;;5066635;28;20175;-89
2021/04/11 03:28:17;;;;;;;5.40;4.90;;;11.10;68.40;;;;;;5066619;28;20175;-89
2021/04/11 03:31:00;;;;;;;5.60;5.10;;;11.20;68.20;;;;;;5066463;28;20689;-89
2021/04/11 03:33:26;;;;;;;5.63;5.03;;;11.30;67.50;;;;;;5069189;28;20182;-89
2021/04/11 03:35:52;;;;;;;5.53;4.93;;;11.40;67.80;;;;;;5047820;28;20195;-88
2021/04/11 03:38:24;;;;;;;5.53;5.03;;;11.40;67.80;;;;;;5064647;28;20681;-88
2021/04/11 03:41:15;;;;;;;5.07;4.60;;;11.50;68.20;;;;;;5066203;28;20215;-90
2021/04/11 03:43:41;;;;;;;6.40;5.57;;;11.50;67.10;;;;;;5052918;28;20534;-91
2021/04/11 03:46:47;;;;;;;5.60;4.93;;;11.50;69.30;;;;;;5049904;28;20180;-89
2021/04/11 03:49:28;;;;;;;5.97;4.70;;;11.50;69.80;;;;;;5015684;28;20193;-89
2021/04/11 03:51:57;;;;;;;5.23;4.50;;;11.30;70.50;;;;;;5065267;28;20195;-89
2021/04/11 03:54:27;;;;;;;5.23;4.80;;;11.30;70.00;;;;;;5031576;28;20194;-88
2021/04/11 03:57:07;;;;;;;5.47;4.77;;;11.30;69.30;;;;;;5052473;28;20183;-88
2021/04/11 03:59:51;;;;;;;5.50;4.90;;;11.40;70.50;;;;;;5045862;28;20155;-88
2021/04/11 04:02:19;;;;;;;5.13;4.67;;;11.30;71.10;;;;;;5045409;28;20728;-88
2021/04/11 04:04:46;;;;;;;5.07;4.67;;;11.20;71.00;;;;;;5044603;28;20173;-88
2021/04/11 04:07:16;;;;;;;5.47;4.40;;;11.20;70.00;;;;;;5045880;28;20188;-88
2021/04/11 04:09:47;;;;;;;5.23;4.10;;;11.20;70.30;;;;;;5046685;28;20673;-89
2021/04/11 04:12:45;;;;;;;4.87;4.47;;;11.30;70.50;;;;;;5045382;28;20203;-88
2021/04/11 04:15:32;;;;;;;4.87;4.37;;;11.30;70.80;;;;;;5045560;28;20172;-88
2021/04/11 04:18:09;;;;;;;4.80;4.40;;;11.40;69.40;;;;;;5045427;28;20226;-88
2021/04/11 04:21:08;;;;;;;5.23;4.83;;;11.40;68.80;;;;;;5045311;28;20196;-88
2021/04/11 04:23:48;;;;;;;5.67;5.13;;;11.50;68.70;;;;;;5044621;28;20156;-88
2021/04/11 04:26:35;;;;;;;4.73;4.33;;;11.50;70.40;;;;;;5045377;28;20153;-88
2021/04/11 04:29:24;;;;;;;8.23;7.50;;;11.40;69.90;;;;;;5045878;28;20167;-88
2021/04/11 04:32:04;;;;;;;5.23;4.73;;;11.40;70.10;;;;;;5046332;28;20199;-88
2021/04/11 04:35:04;;;;;;;6.50;5.10;;;11.40;70.50;;;;;;5046004;28;20172;-88
2021/04/11 04:37:48;;;;;;;4.73;4.23;;;11.30;70.60;;;;;;5043655;28;20265;-89
2021/04/11 04:40:32;;;;;;;4.33;3.90;;;11.40;71.10;;;;;;5045078;28;20302;-88
2021/04/11 04:43:02;;;;;;;4.00;3.37;;;11.20;71.30;;;;;;5042642;28;20190;-88
2021/04/11 04:45:38;;;;;;;4.10;3.70;;;11.20;71.20;;;;;;5045135;28;20183;-88
2021/04/11 04:48:07;;;;;;;4.10;3.70;;;11.20;70.50;;;;;;5043915;28;20632;-88
2021/04/11 04:51:17;;;;;;;5.90;5.30;;;11.20;69.50;;;;;;5045794;28;20180;-89
2021/04/11 04:53:51;;;;;;;6.40;5.10;;;11.30;71.50;;;;;;5066353;28;20220;-88
2021/04/11 04:56:21;;;;;;;4.60;4.20;;;11.30;70.50;;;;;;5078799;28;20200;-90
2021/04/11 04:58:58;;;;;;;5.23;4.53;;;11.30;70.70;;;;;;5071248;28;20259;-88
2021/04/11 05:01:30;;;;;;;5.33;4.40;;;11.30;70.20;;;;;;5064097;28;20250;-88
2021/04/11 05:04:14;;;;;;;4.27;3.93;;;11.30;69.70;;;;;;5063957;28;20634;-88
2021/04/11 05:06:47;;;;;;;4.33;3.80;;;11.40;70.50;;;;;;5065017;28;20186;-88
2021/04/11 05:09:28;;;;;;;4.27;3.87;;;11.30;70.20;;;;;;5064090;28;20190;-88
2021/04/11 05:12:01;;;;;;;4.33;4.03;;;11.20;69.60;;;;;;5063722;28;20278;-88
2021/04/11 05:14:35;;;;;;;5.63;5.20;;;11.20;70.00;;;;;;5063852;28;20231;-88
2021/04/11 05:17:06;;;;;;;6.40;5.87;;;11.30;70.40;;;;;;5045744;28;20241;-88
2021/04/11 05:19:41;;;;;;;5.57;5.07;;;11.30;70.60;;;;;;5065348;28;20538;-88
2021/04/11 05:22:26;;;;;;;5.20;4.70;;;11.20;70.30;;;;;;5063251;28;20227;-88
2021/04/11 05:25:14;;;;;;;7.20;5.53;;;11.30;69.70;;;;;;5042799;28;20183;-88
2021/04/11 05:27:56;;;;;;;5.73;5.23;;;11.30;71.90;;;;;;5044205;28;20175;-88
2021/04/11 05:30:57;;;;;;;4.50;4.10;;;11.20;70.80;;;;;;5044690;28;20188;-88
2021/04/11 05:33:23;;;;;;;4.43;3.90;;;11.20;71.20;;;;;;5043072;28;20175;-87
2021/04/11 05:35:57;;;;;;;4.30;3.97;;;11.10;71.30;;;;;;5044477;28;20188;-88
2021/04/11 05:38:46;;;;;;;4.20;3.47;;;11.10;70.70;;;;;;5043944;28;20164;-88
2021/04/11 05:41:18;;;;;;;4.80;4.10;;;11.20;71.60;;;;;;5058483;28;20311;-89
2021/04/11 05:44:12;;;;;;;3.90;3.60;;;11.20;70.70;;;;;;5042382;28;20276;-88
2021/04/11 05:46:54;;;;;;;4.97;4.47;;;11.20;70.00;;;;;;5052702;28;20203;-88
2021/04/11 05:49:34;;;;;;;4.70;4.20;;;11.40;70.60;;;;;;5063505;28;20184;-88
2021/04/11 05:52:07;;;;;;;3.63;3.33;;;11.40;70.00;;;;;;5062457;28;20195;-88
2021/04/11 05:54:38;;;;;;;3.97;3.63;;;11.40;70.00;;;;;;5063331;28;20179;-88
2021/04/11 05:57:08;;;;;;;4.43;4.03;;;11.40;70.10;;;;;;5045137;28;20193;-88
2021/04/11 05:59:41;;;;;;;4.27;3.87;;;11.50;70.60;;;;;;5055229;28;20257;-88
2021/04/11 06:02:15;;;;;;;5.43;4.17;;;11.30;72.60;;;;;;5045789;28;20235;-88
2021/04/11 06:05:06;;;;;;;6.03;4.10;;;11.30;72.10;;;;;;5064900;28;20174;-89
2021/04/11 06:07:42;;;;;;;4.80;4.23;;;11.40;70.90;;;;;;5066181;28;20177;-90
2021/04/11 06:10:13;;;;;;;5.43;4.13;;;11.30;70.40;;;;;;5084462;28;20253;-90
2021/04/11 06:12:57;;;;;;;4.83;4.43;;;11.50;71.00;;;;;;5084251;28;20199;-91
2021/04/11 06:15:47;;;;;;;4.73;4.00;;;11.50;70.50;;;;;;5085784;28;20171;-90
2021/04/11 06:18:13;;;;;;;4.20;3.80;;;11.60;70.60;;;;;;5084872;28;20199;-90
2021/04/11 06:20:40;;;;;;;6.57;4.00;;;11.70;69.80;;;;;;5039905;28;20216;-89
2021/04/11 06:23:11;;;;;;;6.80;4.43;;;11.80;70.60;;;;;;5049903;28;20196;-89
2021/04/11 06:25:48;;;;;;;6.03;4.33;;;11.80;70.70;;;;;;5057499;28;20171;-89
2021/04/11 06:28:44;;;;;;;4.07;3.67;;;11.90;69.40;;;;;;5039425;28;20198;-89
2021/04/11 06:31:18;;;;;;;4.80;4.00;;;12.00;68.30;;;;;;5057249;28;20203;-89
2021/04/11 06:33:48;;;;;;;4.53;4.07;;;12.20;68.20;;;;;;5023648;28;20187;-89
2021/04/11 06:36:30;;;;;;;5.40;3.77;;;12.20;68.70;;;;;;5055270;28;20188;-90
2021/04/11 06:39:31;;;;;;;4.20;3.63;;;12.30;68.10;;;;;;5040601;28;20733;-89
2021/04/11 06:42:08;;;;;;;4.77;4.27;;;12.50;67.70;;;;;;5048812;28;20223;-89
2021/04/11 06:45:01;;;;;;;6.10;4.07;;;12.50;69.80;;;;;;5044060;28;20521;-90
2021/04/11 06:47:55;;;;;;;4.67;4.00;;;12.60;69.90;;;;;;5064163;28;20177;-89
2021/04/11 06:50:29;;;;;;;3.80;3.40;;;12.70;69.80;;;;;;5063127;28;20576;-89
2021/04/11 06:53:21;;;;;;;5.27;4.03;;;12.60;67.70;;;;;;5079413;28;20185;-89
2021/04/11 06:55:59;;;;;;;4.20;3.40;;;12.80;68.80;;;;;;5086185;28;20274;-90
2021/04/11 06:58:37;;;;;;;4.53;3.97;;;13.00;68.60;;;;;;5086560;28;20568;-89
2021/04/11 07:01:21;;;;;;;4.33;3.93;;;13.10;70.10;;;;;;5084915;28;20220;-90
2021/04/11 07:04:14;;;;;;;4.70;4.30;;;13.10;71.60;;;;;;5062629;28;20227;-91
2021/04/11 07:06:52;;;;;;;4.97;3.93;;;13.10;71.90;;;;;;5051402;28;20188;-90
2021/04/11 07:09:48;;;;;;;4.87;4.37;;;13.10;72.60;;;;;;5049958;28;20176;-90
2021/04/11 07:12:32;;;;;;;4.67;3.73;;;13.10;73.20;;;;;;5066261;28;20691;-89
2021/04/11 07:15:00;;;;;;;4.63;4.20;;;13.20;71.50;;;;;;5037570;28;20279;-89
2021/04/11 07:17:55;;;;;;;5.30;4.80;;;13.40;70.50;;;;;;5065557;28;20224;-89
2021/04/11 07:20:47;;;;;;;4.67;4.20;;;13.40;70.40;;;;;;5038293;28;20198;-90
2021/04/11 07:23:19;;;;;;;13.37;4.27;;;13.40;70.80;;;;;;5047315;28;20180;-90
2021/04/11 07:26:11;;;;;;;6.57;3.60;;;13.30;71.90;;;;;;5067039;28;20242;-90
2021/04/11 07:28:54;;;;;;;5.63;3.40;;;13.20;69.10;;;;;;5045030;28;20178;-90
2021/04/11 07:31:44;;;;;;;3.87;3.53;;;13.20;69.90;;;;;;5067447;28;20247;-90
2021/04/11 07:34:30;;;;;;;6.37;4.00;;;13.40;68.90;;;;;;5039556;28;20186;-89
2021/04/11 07:36:59;;;;;;;3.90;3.13;;;13.70;66.50;;;;;;5068277;28;20180;-90
2021/04/11 07:40:00;;;;;;;4.00;2.90;;;13.90;64.10;;;;;;5065270;28;20177;-90
2021/04/11 07:43:08;;;;;;;3.67;3.00;;;13.70;65.10;;;;;;5056281;28;20223;-89
2021/04/11 07:46:11;;;;;;;3.63;3.33;;;13.90;65.30;;;;;;5030836;28;20184;-89
2021/04/11 07:49:11;;;;;;;11.07;9.93;;;13.90;66.20;;;;;;5043108;28;20205;-90
2021/04/11 07:51:43;;;;;;;4.43;3.27;;;14.20;63.30;;;;;;5063466;28;20211;-90
2021/04/11 07:54:32;;;;;;;3.50;3.20;;;14.40;62.30;;;;;;5064594;28;20168;-89
2021/04/11 07:57:28;;;;;;;3.63;3.00;;;14.40;62.40;;;;;;5057026;28;20205;-89
2021/04/11 08:00:12;;;;;;;4.03;2.73;;;14.30;62.70;;;;;;5056497;28;20184;-89
2021/04/11 08:03:02;;;;;;;4.73;2.87;;;14.30;64.20;;;;;;5064407;28;20216;-87
2021/04/11 08:05:49;;;;;;;3.77;2.50;;;14.50;62.80;;;;;;5048672;28;20192;-88
2021/04/11 08:08:39;;;;;;;7.87;7.07;;;14.60;63.40;;;;;;5049732;28;20544;-88
2021/04/11 08:11:32;;;;;;;5.27;3.87;;;14.70;61.40;;;;;;5030735;28;20208;-89
2021/04/11 08:14:19;;;;;;;4.03;3.63;;;14.80;61.50;;;;;;5044141;28;20208;-89
2021/04/11 08:16:45;;;;;;;3.93;2.70;;;14.80;63.50;;;;;;5052469;28;20196;-89
2021/04/11 08:19:32;;;;;;;3.40;2.80;;;14.90;59.60;;;;;;5047661;28;20181;-89
2021/04/11 08:22:44;;;;;;;3.47;2.43;;;14.90;59.80;;;;;;5031159;28;20228;-90
2021/04/11 08:25:34;;;;;;;3.40;2.40;;;14.90;59.20;;;;;;5003086;28;20192;-90
2021/04/11 08:28:27;;;;;;;3.20;2.90;;;15.00;58.90;;;;;;5036682;28;20184;-87
2021/04/11 08:31:17;;;;;;;2.60;2.40;;;14.80;59.80;;;;;;5038778;28;20204;-89
2021/04/11 08:34:03;;;;;;;3.27;2.30;;;14.90;59.10;;;;;;5089473;28;20206;-88
2021/04/11 08:37:13;;;;;;;3.27;2.40;;;15.20;58.50;;;;;;5087297;28;20198;-90
2021/04/11 08:39:49;;;;;;;3.10;2.23;;;15.40;57.30;;;;;;5088168;28;20227;-90
2021/04/11 08:42:17;;;;;;;4.63;2.50;;;15.50;57.30;;;;;;5078294;28;20315;-90
2021/04/11 08:45:13;;;;;;;4.30;2.53;;;15.40;56.40;;;;;;5064414;28;20191;-90
2021/04/11 08:47:45;;;;;;;6.47;3.17;;;15.50;56.30;;;;;;5063680;28;20184;-89
2021/04/11 08:50:39;;;;;;;7.23;2.43;;;15.40;57.50;;;;;;5063203;28;20650;-90
2021/04/11 08:53:38;;;;;;;2.47;2.27;;;15.50;57.30;;;;;;5063342;28;20169;-89
2021/04/11 08:56:18;;;;;;;4.37;2.10;;;15.80;57.90;;;;;;5064358;28;20171;-90
2021/04/11 08:59:13;;;;;;;5.50;2.23;;;16.00;55.40;;;;;;5062381;28;20535;-90
2021/04/11 09:02:05;;;;;;;2.83;2.47;;;16.00;55.50;;;;;;5046435;28;20228;-89
2021/04/11 09:05:12;;;;;;;5.57;2.57;;;16.10;55.20;;;;;;5045639;28;20235;-90
2021/04/11 09:07:50;;;;;;;2.40;2.20;;;16.60;54.60;;;;;;5064917;28;20227;-90
2021/04/11 09:10:34;;;;;;;2.47;2.10;;;17.00;52.80;;;;;;5066074;28;20210;-88
2021/04/11 09:13:06;;;;;;;3.20;2.40;;;17.10;51.80;;;;;;5065485;28;20176;-90
2021/04/11 09:15:44;;;;;;;2.37;2.17;;;17.40;52.90;;;;;;5065099;28;20177;-90
2021/04/11 09:18:31;;;;;;;2.43;2.00;;;17.40;53.30;;;;;;5045820;28;20188;-90
2021/04/11 09:21:18;;;;;;;2.57;2.30;;;17.10;51.40;;;;;;5063744;28;20269;-90
2021/04/11 09:23:48;;;;;;;3.23;2.30;;;17.00;52.50;;;;;;5062414;28;20187;-90
2021/04/11 09:26:42;;;;;;;3.23;2.23;;;16.80;53.20;;;;;;5045943;28;20208;-90
2021/04/11 09:29:07;;;;;;;4.33;2.20;;;16.90;52.50;;;;;;5046188;28;20177;-89
2021/04/11 09:31:51;;;;;;;3.20;2.43;;;16.80;52.70;;;;;;5063262;28;20218;-91
2021/04/11 09:34:40;;;;;;;4.23;2.70;;;16.70;53.50;;;;;;5062192;28;20200;-88
2021/04/11 09:37:45;;;;;;;3.27;2.20;;;16.60;54.00;;;;;;5076479;28;20179;-89
2021/04/11 09:40:28;;;;;;;4.23;2.47;;;16.50;54.50;;;;;;5070917;28;20237;-89
2021/04/11 09:43:22;;;;;;;4.43;2.53;;;16.40;55.10;;;;;;5057462;28;20275;-90
2021/04/11 09:46:16;;;;;;;3.93;2.67;;;16.30;55.10;;;;;;5040221;28;20557;-90
2021/04/11 09:48:48;;;;;;;2.83;2.13;;;16.30;55.20;;;;;;5059898;28;20195;-89
2021/04/11 09:51:37;;;;;;;4.93;2.63;;;16.30;55.80;;;;;;5043995;28;20298;-89
2021/04/11 09:54:17;;;;;;;6.20;3.10;;;16.40;54.60;;;;;;5044687;28;20172;-90
2021/04/11 09:57:15;;;;;;;2.63;2.43;;;16.30;55.20;;;;;;5065487;28;20175;-89
2021/04/11 10:00:03;;;;;;;3.33;2.50;;;16.30;55.70;;;;;;5037520;28;20199;-90
2021/04/11 10:02:47;;;;;;;3.90;2.30;;;16.20;55.60;;;;;;5027177;28;20247;-89
2021/04/11 10:05:45;;;;;;;4.57;2.57;;;16.20;53.60;;;;;;5044196;28;20231;-89
2021/04/11 10:08:26;;;;;;;2.87;2.30;;;16.20;52.90;;;;;;5060799;28;20241;-89
2021/04/11 10:11:11;;;;;;;3.73;2.43;;;16.00;53.10;;;;;;5063615;28;20197;-89
2021/04/11 10:14:09;;;;;;;5.47;2.43;;;15.90;54.10;;;;;;5046395;28;20180;-89
2021/04/11 10:17:14;;;;;;;2.73;2.53;;;16.00;54.90;;;;;;5045754;28;20187;-90
2021/04/11 10:20:11;;;;;;;3.70;2.83;;;16.20;54.10;;;;;;4973186;28;20590;-90
2021/04/11 10:22:51;;;;;;;3.73;2.47;;;16.30;54.10;;;;;;5024451;28;20236;-90
2021/04/11 10:25:29;;;;;;;3.30;2.60;;;16.30;53.40;;;;;;5044753;28;20532;-89
2021/04/11 10:28:18;;;;;;;4.03;2.70;;;16.30;53.00;;;;;;5044306;28;20184;-89
2021/04/11 10:30:52;;;;;;;5.70;3.17;;;16.30;53.90;;;;;;5058276;28;20177;-88
2021/04/11 10:33:25;;;;;;;4.50;4.07;;;16.20;55.40;;;;;;5057521;28;20175;-88
2021/04/11 10:36:08;;;;;;;4.23;2.50;;;16.30;54.10;;;;;;5036596;28;20216;-89
2021/04/11 10:38:39;;;;;;;7.73;3.20;;;16.40;54.50;;;;;;5044945;28;20169;-89
2021/04/11 10:41:33;;;;;;;3.63;3.17;;;16.30;54.00;;;;;;5046449;28;20241;-89
2021/04/11 10:44:22;;;;;;;2.90;2.70;;;16.40;54.50;;;;;;5042804;28;20180;-89
2021/04/11 10:47:17;;;;;;;4.40;3.50;;;16.40;54.70;;;;;;5044989;28;20545;-88
2021/04/11 10:49:45;;;;;;;3.80;2.50;;;16.60;54.50;;;;;;5026258;28;20194;-89
2021/04/11 10:52:29;;;;;;;3.20;2.60;;;16.60;53.10;;;;;;5046663;28;20199;-89
2021/04/11 10:55:24;;;;;;;2.90;2.70;;;16.80;54.70;;;;;;5056164;28;20181;-89
2021/04/11 10:58:05;;;;;;;5.80;2.90;;;17.00;54.40;;;;;;5064018;28;20200;-89
2021/04/11 11:01:13;;;;;;;3.30;2.50;;;17.10;52.80;;;;;;5051065;28;20273;-89
2021/04/11 11:03:57;;;;;;;3.40;3.10;;;17.30;52.80;;;;;;5035320;28;20214;-88
2021/04/11 11:07:00;;;;;;;3.43;3.10;;;17.60;51.60;;;;;;5042957;28;20157;-89
2021/04/11 11:09:39;;;;;;;2.60;2.40;;;17.80;50.90;;;;;;5023398;28;20216;-89
2021/04/11 11:12:23;;;;;;;3.83;2.80;;;18.50;49.00;;;;;;5042982;28;20563;-89
2021/04/11 11:15:13;;;;;;;3.30;2.30;;;18.80;47.80;;;;;;5023916;28;20180;-88
2021/04/11 11:18:04;;;;;;;3.77;3.00;;;18.50;48.20;;;;;;5039563;28;20173;-90
2021/04/11 11:20:51;;;;;;;3.10;2.70;;;18.30;49.20;;;;;;5040104;28;20181;-89
2021/04/11 11:23:42;;;;;;;4.18;2.80;;;18.90;49.30;;;;;;5023161;28;20187;-89
2021/04/11 11:26:42;;;;;;;3.55;2.45;;;19.60;46.50;;;;;;5044672;28;20297;-90
2021/04/11 11:29:11;;;;;;;5.70;2.53;;;19.70;46.20;;;;;;5061991;28;20242;-89
2021/04/11 11:31:42;;;;;;;2.65;2.40;;;20.00;45.90;;;;;;5052591;28;20199;-90
2021/04/11 11:34:32;;;;;;;2.60;2.40;;;19.90;45.50;;;;;;5067846;28;20724;-90
2021/04/11 11:37:29;;;;;;;3.08;2.70;;;19.60;45.50;;;;;;5065825;28;20187;-91
2021/04/11 11:40:13;;;;;;;3.13;2.50;;;19.20;45.90;;;;;;5064015;28;20185;-90
2021/04/11 11:42:48;;;;;;;4.37;2.60;;;18.80;47.80;;;;;;5057606;28;20230;-91
2021/04/11 11:45:37;;;;;;;2.83;2.50;;;18.70;49.00;;;;;;5063677;28;20198;-91
2021/04/11 11:48:14;;;;;;;2.42;2.22;;;19.10;49.00;;;;;;5063513;28;20186;-90
2021/04/11 11:51:03;;;;;;;3.97;2.90;;;19.20;48.00;;;;;;5063859;28;20201;-91
2021/04/11 11:53:39;;;;;;;2.70;2.50;;;19.10;47.60;;;;;;5051144;28;20182;-90
2021/04/11 11:56:27;;;;;;;4.07;2.50;;;18.80;49.10;;;;;;5046608;28;20200;-90
2021/04/11 11:58:55;;;;;;;3.70;2.63;;;19.20;49.80;;;;;;5071319;28;20171;-89
2021/04/11 12:01:50;;;;;;;3.83;2.50;;;19.80;46.90;;;;;;5071603;28;20223;-90
2021/04/11 12:04:33;;;;;;;3.03;2.70;;;19.90;45.60;;;;;;5077229;28;20187;-90
2021/04/11 12:07:05;;;;;;;3.30;2.60;;;20.00;45.70;;;;;;5043867;28;20221;-90
2021/04/11 12:09:45;;;;;;;6.15;5.63;;;20.20;45.30;;;;;;5030037;28;20246;-90
2021/04/11 12:12:17;;;;;;;4.60;3.33;;;20.70;45.20;;;;;;5055292;28;20212;-90
2021/04/11 12:15:15;;;;;;;4.63;3.10;;;21.20;42.70;;;;;;5037402;28;20201;-90
2021/04/11 12:17:59;;;;;;;3.58;3.28;;;21.70;42.80;;;;;;5059267;28;20184;-90
2021/04/11 12:20:44;;;;;;;3.35;3.05;;;21.90;41.40;;;;;;5063306;28;20187;-90
2021/04/11 12:23:32;;;;;;;3.25;2.90;;;22.00;39.70;;;;;;5052196;28;20212;-90
2021/04/11 12:26:12;;;;;;;4.07;3.55;;;21.60;40.60;;;;;;5060451;28;20674;-90
2021/04/11 12:28:40;;;;;;;13.20;12.13;;;21.00;42.20;;;;;;5056004;28;20623;-90
2021/04/11 12:31:29;;;;;;;3.67;3.40;;;20.60;43.10;;;;;;5062506;28;20219;-90
2021/04/11 12:34:10;;;;;;;4.80;2.67;;;20.20;43.70;;;;;;5045278;28;20177;-90
2021/04/11 12:36:59;;;;;;;4.50;2.38;;;20.60;43.70;;;;;;5049686;28;20184;-91
2021/04/11 12:39:30;;;;;;;2.75;2.33;;;20.80;43.10;;;;;;5061188;28;20191;-92
2021/04/11 12:42:18;;;;;;;3.45;2.25;;;20.90;42.30;;;;;;5042340;28;20234;-92
2021/04/11 12:45:15;;;;;;;2.50;2.30;;;20.10;43.80;;;;;;5046705;28;20204;-90
2021/04/11 12:48:11;;;;;;;3.03;2.47;;;20.20;44.00;;;;;;5057251;28;20198;-90
2021/04/11 12:50:45;;;;;;;6.47;3.55;;;21.00;42.90;;;;;;5059063;28;20173;-90
2021/04/11 12:53:23;;;;;;;4.25;3.20;;;21.00;41.80;;;;;;5057743;28;20176;-90
2021/04/11 12:55:52;;;;;;;5.70;2.53;;;20.80;42.00;;;;;;5056369;28;20182;-89
2021/04/11 12:58:44;;;;;;;2.97;2.65;;;20.80;42.30;;;;;;5062925;28;20192;-90
2021/04/11 13:01:12;;;;;;;3.75;3.45;;;20.50;43.10;;;;;;5052404;28;20262;-89
2021/04/11 13:03:53;;;;;;;3.80;2.35;;;20.40;43.20;;;;;;5054949;28;20180;-90
2021/04/11 13:06:28;;;;;;;4.80;4.40;;;20.40;43.80;;;;;;5038571;28;20235;-90
2021/04/11 13:09:31;;;;;;;5.93;4.60;;;20.10;45.80;;;;;;5032938;28;20223;-90
2021/04/11 13:12:12;;;;;;;3.33;2.83;;;20.10;43.90;;;;;;5053620;28;20363;-89
2021/04/11 13:15:04;;;;;;;10.52;8.95;;;19.80;44.00;;;;;;5046432;28;20192;-89
2021/04/11 13:17:45;;;;;;;3.55;3.20;;;19.60;45.40;;;;;;5061645;28;20294;-89
2021/04/11 13:20:19;;;;;;;4.65;3.20;;;19.30;45.80;;;;;;5058180;28;20180;-88
2021/04/11 13:23:02;;;;;;;8.23;2.55;;;18.90;47.20;;;;;;5051494;28;20206;-88
2021/04/11 13:25:51;;;;;;;2.13;1.97;;;18.50;48.50;;;;;;5058841;28;20294;-89
2021/04/11 13:28:24;;;;;;;18.60;16.83;;;18.00;49.80;;;;;;5059644;28;20181;-87
2021/04/11 13:31:11;;;;;;;6.30;2.93;;;17.90;50.40;;;;;;5046061;28;20228;-90
2021/04/11 13:33:44;;;;;;;4.80;2.67;;;17.90;51.30;;;;;;5049705;28;20259;-90
2021/04/11 13:36:36;;;;;;;5.63;3.00;;;17.50;52.20;;;;;;5050874;28;20219;-90
2021/04/11 13:39:10;;;;;;;3.30;2.30;;;17.40;53.10;;;;;;5057310;28;20206;-90
2021/04/11 13:41:35;;;;;;;3.97;3.57;;;17.10;53.50;;;;;;5079737;28;20263;-90
2021/04/11 13:44:22;;;;;;;4.03;2.60;;;16.80;54.70;;;;;;5043738;28;20209;-91
2021/04/11 13:47:15;;;;;;;6.73;3.83;;;16.70;56.30;;;;;;5060811;28;20229;-90
2021/04/11 13:50:11;;;;;;;6.77;4.80;;;16.60;57.50;;;;;;5043752;28;20176;-90